Time;durP1;ratioP1;P1;durP2;ratioP2;P2;SDS_P1;SDS_P2;PMS_P1;PMS_P2;Temp;Humidity;BMP_temperature;BMP_pressure;BME280_temperature;BME280_humidity;BME280_pressure;Samples;Min_cycle;Max_cycle;Signal;HPM_P1;HPM_P2
2021/11/10 00:00:12;;;;;;;18.67;9.85;;;1.90;99.90;;;;;;1973339;71;21099;-78
2021/11/10 00:02:38;;;;;;;16.00;9.75;;;1.90;99.90;;;;;;1961722;71;21133;-78
2021/11/10 00:05:04;;;;;;;16.75;7.67;;;2.00;99.90;;;;;;1977282;70;21150;-77
2021/11/10 00:07:30;;;;;;;13.80;8.00;;;1.90;99.90;;;;;;1978447;72;21123;-75
2021/11/10 00:09:56;;;;;;;11.25;7.55;;;1.80;99.90;;;;;;1962864;72;21059;-76
2021/11/10 00:12:22;;;;;;;11.20;6.85;;;1.80;99.90;;;;;;1977246;71;21079;-78
2021/11/10 00:14:51;;;;;;;16.02;7.17;;;1.80;99.90;;;;;;1970330;71;21132;-78
2021/11/10 00:17:16;;;;;;;14.30;6.95;;;1.70;99.90;;;;;;1983151;70;21070;-77
2021/11/10 00:19:45;;;;;;;12.53;7.65;;;1.60;99.90;;;;;;1977726;71;21554;-77
2021/11/10 00:22:10;;;;;;;13.45;8.23;;;1.70;99.90;;;;;;1965668;71;21051;-78
2021/11/10 00:24:36;;;;;;;12.82;7.42;;;1.70;99.90;;;;;;1972953;72;21128;-78
2021/11/10 00:27:03;;;;;;;13.20;7.35;;;1.70;99.90;;;;;;1993406;71;21128;-78
2021/11/10 00:29:29;;;;;;;14.93;8.55;;;1.70;99.90;;;;;;1986178;72;21085;-78
2021/11/10 00:31:55;;;;;;;12.55;7.58;;;1.60;99.90;;;;;;1971998;71;21029;-78
2021/11/10 00:34:21;;;;;;;14.18;7.47;;;1.60;99.90;;;;;;1975277;71;21051;-77
2021/11/10 00:36:47;;;;;;;12.20;7.55;;;1.70;99.90;;;;;;1982724;71;21141;-78
2021/11/10 00:39:14;;;;;;;17.75;8.15;;;1.70;99.90;;;;;;1993490;71;21067;-78
2021/11/10 00:41:40;;;;;;;12.47;8.30;;;1.70;99.90;;;;;;1980336;71;21071;-77
2021/11/10 00:44:06;;;;;;;19.48;8.13;;;1.70;99.90;;;;;;1985874;70;21479;-78
2021/11/10 00:46:32;;;;;;;12.70;8.35;;;1.70;99.90;;;;;;1979365;71;21506;-78
2021/11/10 00:48:58;;;;;;;12.13;7.58;;;1.70;99.90;;;;;;1983261;71;21446;-77
2021/11/10 00:51:24;;;;;;;15.00;8.65;;;1.60;99.90;;;;;;1977044;70;21123;-76
2021/11/10 00:53:50;;;;;;;14.25;8.05;;;1.50;99.90;;;;;;1972754;71;21068;-77
2021/11/10 00:56:16;;;;;;;14.68;7.45;;;1.60;99.90;;;;;;1963014;72;21133;-77
2021/11/10 00:58:42;;;;;;;15.88;8.65;;;1.80;99.90;;;;;;1971892;70;21110;-77
2021/11/10 01:01:09;;;;;;;13.35;8.33;;;1.80;99.90;;;;;;1976583;71;21188;-77
2021/11/10 01:03:35;;;;;;;12.90;8.43;;;1.70;99.90;;;;;;1983357;71;21115;-78
2021/11/10 01:06:01;;;;;;;16.23;7.95;;;1.70;99.90;;;;;;1961757;71;21076;-77
2021/11/10 01:08:27;;;;;;;13.32;9.25;;;1.80;99.90;;;;;;1962279;72;21114;-77
2021/11/10 01:10:53;;;;;;;17.25;9.83;;;1.70;99.90;;;;;;1966794;71;21067;-78
2021/11/10 01:13:20;;;;;;;31.07;8.88;;;1.60;99.90;;;;;;1988365;71;21047;-78
2021/11/10 01:15:46;;;;;;;17.95;8.83;;;1.80;99.90;;;;;;1967543;71;21095;-77
2021/11/10 01:18:12;;;;;;;21.20;10.05;;;1.70;99.90;;;;;;1977064;71;21136;-78
2021/11/10 01:20:38;;;;;;;13.08;9.03;;;1.50;99.90;;;;;;1981255;71;21211;-78
2021/11/10 01:23:04;;;;;;;18.85;10.75;;;1.60;99.90;;;;;;1977688;71;21076;-77
2021/11/10 01:25:30;;;;;;;16.12;9.75;;;1.60;99.90;;;;;;1962921;72;21137;-77
2021/11/10 01:27:56;;;;;;;16.17;10.45;;;1.60;99.90;;;;;;1962808;71;21094;-77
2021/11/10 01:30:23;;;;;;;15.88;9.45;;;1.60;99.90;;;;;;1979415;71;21152;-77
2021/11/10 01:32:49;;;;;;;20.92;9.73;;;1.60;99.90;;;;;;1991569;71;21062;-77
2021/11/10 01:35:15;;;;;;;14.15;9.35;;;1.50;99.90;;;;;;1967238;71;21455;-78
2021/11/10 01:37:41;;;;;;;22.42;10.55;;;1.40;99.90;;;;;;1961727;71;21084;-77
2021/11/10 01:40:08;;;;;;;22.67;10.53;;;1.40;99.90;;;;;;1982613;71;21157;-78
2021/11/10 01:42:34;;;;;;;16.55;9.70;;;1.30;99.90;;;;;;1966164;72;21032;-76
2021/11/10 01:45:00;;;;;;;16.35;9.88;;;1.30;99.90;;;;;;1979587;71;21122;-77
2021/11/10 01:47:26;;;;;;;17.57;9.60;;;1.20;99.90;;;;;;1977140;72;21062;-78
2021/11/10 01:49:52;;;;;;;15.18;8.50;;;1.10;99.90;;;;;;1979622;70;21123;-77
2021/11/10 01:52:18;;;;;;;13.88;8.45;;;1.20;99.90;;;;;;1982850;72;21083;-76
2021/11/10 01:54:44;;;;;;;18.32;9.35;;;1.30;99.90;;;;;;1963098;71;21145;-77
2021/11/10 01:57:10;;;;;;;18.60;9.38;;;1.30;99.90;;;;;;1971335;71;21491;-77
2021/11/10 01:59:37;;;;;;;14.95;9.40;;;1.20;99.90;;;;;;1983806;71;21465;-77
2021/11/10 02:02:03;;;;;;;17.42;9.23;;;1.10;99.90;;;;;;1973209;72;21689;-78
2021/11/10 02:04:29;;;;;;;14.70;8.60;;;1.20;99.90;;;;;;1967628;71;21132;-77
2021/11/10 02:06:55;;;;;;;18.25;9.43;;;1.10;99.90;;;;;;1993139;71;21059;-76
2021/11/10 02:09:22;;;;;;;14.45;8.93;;;1.10;99.90;;;;;;1961930;71;21064;-77
2021/11/10 02:11:48;;;;;;;19.85;9.78;;;1.20;99.90;;;;;;1969999;71;21067;-78
2021/11/10 02:14:15;;;;;;;16.87;9.23;;;1.20;99.90;;;;;;1987282;71;21091;-77
2021/11/10 02:16:41;;;;;;;12.53;8.98;;;1.10;99.90;;;;;;1966956;71;21141;-78
2021/11/10 02:19:07;;;;;;;26.93;10.18;;;1.10;99.90;;;;;;1962391;71;21072;-78
2021/11/10 02:21:35;;;;;;;16.35;8.45;;;1.10;99.90;;;;;;1969518;71;21029;-77
2021/11/10 02:24:01;;;;;;;12.47;8.45;;;1.10;99.90;;;;;;1975385;70;21109;-77
2021/11/10 02:26:27;;;;;;;16.87;9.30;;;1.10;99.90;;;;;;1990848;71;21454;-77
2021/11/10 02:28:53;;;;;;;16.52;8.63;;;1.10;99.90;;;;;;1978262;71;21540;-77
2021/11/10 02:31:20;;;;;;;14.80;8.35;;;1.00;99.90;;;;;;1977658;72;21524;-77
2021/11/10 02:33:46;;;;;;;12.93;8.08;;;1.00;99.90;;;;;;1975329;71;21450;-78
2021/11/10 02:36:12;;;;;;;13.05;8.30;;;0.90;99.90;;;;;;1975735;72;21035;-79
2021/11/10 02:38:38;;;;;;;9.55;7.47;;;0.90;99.90;;;;;;1972626;71;21048;-77
2021/11/10 02:41:04;;;;;;;14.13;7.60;;;1.00;99.90;;;;;;1979107;71;21072;-78
2021/11/10 02:43:30;;;;;;;19.30;7.72;;;1.00;99.90;;;;;;1968107;71;21153;-76
2021/11/10 02:45:57;;;;;;;19.45;7.97;;;1.00;99.90;;;;;;1968108;71;21211;-77
2021/11/10 02:48:23;;;;;;;9.83;7.37;;;1.00;99.90;;;;;;1962429;71;21111;-78
2021/11/10 02:50:50;;;;;;;15.55;8.90;;;1.00;99.90;;;;;;1962891;72;21267;-78
2021/11/10 02:53:16;;;;;;;10.58;7.92;;;0.90;99.90;;;;;;1976483;71;21250;-78
2021/11/10 02:55:42;;;;;;;14.38;8.38;;;0.90;99.90;;;;;;1973088;71;21153;-77
2021/11/10 02:58:09;;;;;;;15.75;8.38;;;0.90;99.90;;;;;;1932465;72;21044;-76
2021/11/10 03:00:35;;;;;;;17.10;8.65;;;0.90;99.90;;;;;;1972010;71;21116;-77
2021/11/10 03:03:05;;;;;;;18.75;8.93;;;0.90;99.90;;;;;;1966934;70;21115;-77
2021/11/10 03:05:29;;;;;;;16.02;8.40;;;0.90;99.90;;;;;;1966234;70;21174;-78
2021/11/10 03:07:55;;;;;;;14.60;8.63;;;0.90;99.90;;;;;;1972163;71;21072;-77
2021/11/10 03:10:21;;;;;;;20.45;8.48;;;0.80;99.90;;;;;;1983159;71;21149;-78
2021/11/10 03:12:47;;;;;;;13.38;8.48;;;0.80;99.90;;;;;;1982597;70;21137;-77
2021/11/10 03:15:14;;;;;;;12.23;8.78;;;0.70;99.90;;;;;;1983468;70;21132;-76
2021/11/10 03:17:40;;;;;;;19.00;9.40;;;0.70;99.90;;;;;;1960069;71;21049;-78
2021/11/10 03:20:06;;;;;;;18.10;9.20;;;0.80;99.90;;;;;;1968149;71;21480;-76
2021/11/10 03:22:32;;;;;;;15.03;8.95;;;0.80;99.90;;;;;;1975785;71;21102;-79
2021/11/10 03:24:58;;;;;;;17.27;8.93;;;0.90;99.90;;;;;;1974349;71;21072;-77
2021/11/10 03:27:25;;;;;;;11.78;8.75;;;0.80;99.90;;;;;;1981443;71;21075;-78
2021/11/10 03:29:51;;;;;;;12.98;9.13;;;0.80;99.90;;;;;;1962825;72;21503;-79
2021/11/10 03:32:17;;;;;;;16.32;9.35;;;0.80;99.90;;;;;;1964259;71;21130;-76
2021/11/10 03:34:44;;;;;;;13.03;9.58;;;0.90;99.90;;;;;;1964640;71;21115;-78
2021/11/10 03:37:10;;;;;;;14.58;9.75;;;0.80;99.90;;;;;;1975897;71;21474;-77
2021/11/10 03:39:36;;;;;;;11.48;8.60;;;0.80;99.90;;;;;;1987935;71;21454;-77
2021/11/10 03:42:02;;;;;;;19.85;9.00;;;0.80;99.90;;;;;;1967396;71;21612;-76
2021/11/10 03:44:29;;;;;;;14.05;8.93;;;0.80;99.90;;;;;;1980585;71;21040;-77
2021/11/10 03:46:55;;;;;;;14.50;8.78;;;0.80;99.90;;;;;;1968498;71;21032;-78
2021/11/10 03:49:21;;;;;;;11.33;8.20;;;0.90;99.90;;;;;;1977565;72;21136;-78
2021/11/10 03:51:47;;;;;;;13.80;8.93;;;0.80;99.90;;;;;;1967312;71;21637;-77
2021/11/10 03:54:14;;;;;;;16.37;8.25;;;0.80;99.90;;;;;;1988427;71;21059;-79
2021/11/10 03:56:40;;;;;;;11.50;8.65;;;0.80;99.90;;;;;;1983100;72;21137;-78
2021/11/10 03:59:06;;;;;;;11.30;8.05;;;0.80;99.90;;;;;;1972630;71;21071;-77
2021/11/10 04:01:32;;;;;;;21.07;9.93;;;0.80;99.90;;;;;;1977384;71;21124;-77
2021/11/10 04:03:58;;;;;;;16.30;9.80;;;0.80;99.90;;;;;;1982114;70;21107;-79
2021/11/10 04:06:24;;;;;;;14.45;8.95;;;0.70;99.90;;;;;;1976719;71;21149;-78
2021/11/10 04:08:51;;;;;;;12.65;9.15;;;0.70;99.90;;;;;;1973259;71;21071;-78
2021/11/10 04:11:17;;;;;;;17.00;9.28;;;0.70;99.90;;;;;;1987905;71;21498;-78
2021/11/10 04:13:43;;;;;;;19.98;9.30;;;0.70;99.90;;;;;;1986743;70;21472;-77
2021/11/10 04:16:09;;;;;;;16.10;9.68;;;0.70;99.90;;;;;;1978104;72;21157;-79
2021/11/10 04:18:35;;;;;;;13.13;9.33;;;0.70;99.90;;;;;;1967403;71;21049;-77
2021/11/10 04:21:01;;;;;;;12.80;8.80;;;0.70;99.90;;;;;;1969860;71;21067;-77
2021/11/10 04:23:28;;;;;;;17.85;9.73;;;0.60;99.90;;;;;;1980612;71;21041;-78
2021/11/10 04:25:54;;;;;;;12.15;8.73;;;0.60;99.90;;;;;;1974851;71;21399;-77
2021/11/10 04:28:20;;;;;;;17.42;9.75;;;0.60;99.90;;;;;;1980271;72;21068;-78
2021/11/10 04:30:46;;;;;;;17.15;10.30;;;0.60;99.90;;;;;;1966036;70;21062;-78
2021/11/10 04:33:12;;;;;;;13.40;9.03;;;0.60;99.90;;;;;;1986242;70;21094;-77
2021/11/10 04:35:41;;;;;;;19.48;9.50;;;0.60;99.90;;;;;;1987869;71;21124;-78
2021/11/10 04:38:06;;;;;;;17.85;9.33;;;0.70;99.90;;;;;;1978271;70;21539;-78
2021/11/10 04:40:32;;;;;;;12.15;8.63;;;0.60;99.90;;;;;;1972025;71;21467;-77
2021/11/10 04:42:58;;;;;;;16.50;8.70;;;0.60;99.90;;;;;;1982124;71;21543;-78
2021/11/10 04:45:31;;;;;;;14.90;9.13;;;0.60;99.90;;;;;;1982913;70;21054;-78
2021/11/10 04:47:52;;;;;;;15.70;9.38;;;0.60;99.90;;;;;;1986713;71;21131;-78
2021/11/10 04:50:18;;;;;;;12.40;9.35;;;0.60;99.90;;;;;;1993505;70;21116;-77
2021/11/10 04:52:46;;;;;;;15.00;10.08;;;0.50;99.90;;;;;;1973974;72;21440;-78
2021/11/10 04:55:12;;;;;;;15.58;9.15;;;0.50;99.90;;;;;;1976758;71;21193;-78
2021/11/10 04:57:38;;;;;;;13.85;10.03;;;0.50;99.90;;;;;;1973024;71;21151;-76
2021/11/10 05:00:04;;;;;;;17.10;10.60;;;0.40;99.90;;;;;;1978645;72;21079;-76
2021/11/10 05:02:30;;;;;;;17.75;11.28;;;0.50;99.90;;;;;;1972407;71;21327;-77
2021/11/10 05:04:57;;;;;;;13.68;10.23;;;0.50;99.90;;;;;;1987786;71;21031;-78
2021/11/10 05:07:23;;;;;;;15.05;10.93;;;0.50;99.90;;;;;;1975648;71;21575;-77
2021/11/10 05:09:49;;;;;;;15.75;9.95;;;0.60;99.90;;;;;;1976028;70;21470;-78
2021/11/10 05:12:16;;;;;;;18.60;11.48;;;0.50;99.90;;;;;;1972718;71;21058;-78
2021/11/10 05:14:42;;;;;;;16.93;9.90;;;0.50;99.90;;;;;;1968024;72;21050;-79
2021/11/10 05:17:09;;;;;;;17.85;11.45;;;0.50;99.90;;;;;;1987786;70;21134;-78
2021/11/10 05:19:35;;;;;;;23.20;11.22;;;0.50;99.90;;;;;;1982419;71;21089;-77
2021/11/10 05:22:01;;;;;;;19.00;11.43;;;0.50;99.90;;;;;;1988181;71;21056;-78
2021/11/10 05:24:28;;;;;;;18.10;11.22;;;0.50;99.90;;;;;;1968806;72;21135;-78
2021/11/10 05:26:54;;;;;;;17.13;12.23;;;0.40;99.90;;;;;;1979489;71;21321;-77
2021/11/10 05:29:20;;;;;;;18.70;12.03;;;0.30;99.90;;;;;;1995211;71;21111;-77
2021/11/10 05:31:46;;;;;;;18.80;11.63;;;0.40;99.90;;;;;;1968525;71;21445;-77
2021/11/10 05:34:13;;;;;;;26.70;12.90;;;0.40;99.90;;;;;;1993279;72;21449;-78
2021/11/10 05:36:39;;;;;;;18.15;12.30;;;0.30;99.90;;;;;;1978269;72;21522;-77
2021/11/10 05:39:07;;;;;;;23.07;12.23;;;0.30;99.90;;;;;;1978625;71;21466;-78
2021/11/10 05:41:33;;;;;;;16.67;11.68;;;0.30;99.90;;;;;;1966213;71;21079;-78
2021/11/10 05:43:59;;;;;;;20.80;12.33;;;0.40;99.90;;;;;;1963186;71;21048;-79
2021/11/10 05:46:25;;;;;;;31.70;12.85;;;0.30;99.90;;;;;;1969310;71;21062;-77
2021/11/10 05:48:51;;;;;;;22.48;13.25;;;0.30;99.90;;;;;;1986522;71;21471;-77
2021/11/10 05:51:17;;;;;;;27.35;13.03;;;0.30;99.90;;;;;;1962469;71;21491;-77
2021/11/10 05:53:44;;;;;;;22.22;13.18;;;0.30;99.90;;;;;;1975634;70;21470;-77
2021/11/10 05:56:19;;;;;;;16.80;11.53;;;0.40;99.90;;;;;;1983298;71;21035;-78
2021/11/10 05:58:44;;;;;;;19.15;12.45;;;0.50;99.90;;;;;;1974436;70;21157;-78
2021/11/10 06:01:10;;;;;;;17.93;11.00;;;0.50;99.90;;;;;;1973404;71;21174;-76
2021/11/10 06:03:37;;;;;;;19.07;11.85;;;0.40;99.90;;;;;;1977385;71;21157;-76
2021/11/10 06:06:03;;;;;;;19.20;11.63;;;0.40;99.90;;;;;;1974071;71;21031;-77
2021/11/10 06:08:29;;;;;;;22.90;11.22;;;0.50;99.90;;;;;;1972719;71;21025;-77
2021/11/10 06:10:55;;;;;;;19.32;10.20;;;0.40;99.90;;;;;;1977615;71;21063;-77
2021/11/10 06:13:21;;;;;;;18.07;10.38;;;0.40;99.90;;;;;;1973243;70;21195;-77
2021/11/10 06:15:49;;;;;;;15.40;10.38;;;0.50;99.90;;;;;;1977310;72;21076;-77
2021/11/10 06:18:15;;;;;;;18.32;11.00;;;0.50;99.90;;;;;;1983392;71;21510;-80
2021/11/10 06:20:43;;;;;;;16.67;10.13;;;0.50;99.90;;;;;;1966739;72;21067;-80
2021/11/10 06:23:09;;;;;;;16.52;10.08;;;0.50;99.90;;;;;;1988704;71;21067;-79
2021/11/10 06:25:35;;;;;;;23.42;11.12;;;0.50;99.90;;;;;;1977395;71;21149;-82
2021/11/10 06:28:01;;;;;;;19.92;11.35;;;0.50;99.90;;;;;;1972450;71;21072;-82
2021/11/10 06:30:27;;;;;;;20.23;11.60;;;0.50;99.90;;;;;;1969324;71;21074;-82
2021/11/10 06:32:53;;;;;;;19.40;11.08;;;0.50;99.90;;;;;;1982841;71;21045;-81
2021/11/10 06:35:19;;;;;;;24.85;12.15;;;0.50;99.90;;;;;;1980259;72;21083;-78
2021/11/10 06:37:46;;;;;;;18.37;10.85;;;0.40;99.90;;;;;;1976545;72;21074;-80
2021/11/10 06:40:12;;;;;;;18.35;10.80;;;0.50;99.90;;;;;;1979163;71;21487;-77
2021/11/10 06:42:38;;;;;;;21.02;11.30;;;0.60;99.90;;;;;;1962698;71;21467;-76
2021/11/10 06:45:04;;;;;;;18.70;10.28;;;0.70;99.90;;;;;;1967853;72;21464;-77
2021/11/10 06:47:30;;;;;;;24.30;10.72;;;0.70;99.90;;;;;;1980303;71;21520;-78
2021/11/10 06:49:56;;;;;;;19.75;11.15;;;0.70;99.90;;;;;;1983154;72;21062;-77
2021/11/10 06:52:22;;;;;;;17.35;10.50;;;0.60;99.90;;;;;;1964622;71;21129;-77
2021/11/10 06:54:50;;;;;;;20.40;11.53;;;0.70;99.90;;;;;;1966940;71;21075;-78
2021/11/10 06:57:16;;;;;;;26.82;11.28;;;0.80;99.90;;;;;;1966850;71;21211;-79
2021/11/10 06:59:42;;;;;;;24.45;10.20;;;0.80;99.90;;;;;;1982756;70;21533;-77
2021/11/10 07:02:08;;;;;;;18.05;10.65;;;0.80;99.90;;;;;;1977128;71;21435;-77
2021/11/10 07:04:35;;;;;;;18.67;11.30;;;0.90;99.90;;;;;;1977106;71;21128;-78
2021/11/10 07:07:01;;;;;;;19.45;10.93;;;0.80;99.90;;;;;;1972055;71;21064;-78
2021/11/10 07:09:27;;;;;;;17.02;11.33;;;0.80;99.90;;;;;;1973185;71;21052;-78
2021/11/10 07:11:53;;;;;;;16.42;10.63;;;0.80;99.90;;;;;;1983313;71;21064;-79
2021/11/10 07:14:21;;;;;;;27.95;11.78;;;0.90;99.90;;;;;;1971881;71;21055;-80
2021/11/10 07:16:47;;;;;;;19.50;10.30;;;1.00;99.90;;;;;;1962526;72;21563;-79
2021/11/10 07:19:13;;;;;;;18.73;11.48;;;1.00;99.90;;;;;;1983096;70;21028;-78
2021/11/10 07:21:39;;;;;;;40.08;11.08;;;1.10;99.90;;;;;;1989908;72;21132;-79
2021/11/10 07:24:05;;;;;;;20.27;11.40;;;1.10;99.90;;;;;;1975539;72;21064;-78
2021/11/10 07:26:32;;;;;;;30.00;12.07;;;1.30;99.90;;;;;;1991171;70;21153;-79
2021/11/10 07:28:58;;;;;;;21.40;11.05;;;1.30;99.90;;;;;;1969366;71;21075;-78
2021/11/10 07:31:24;;;;;;;25.90;11.53;;;1.50;99.90;;;;;;1975500;71;21106;-79
2021/11/10 07:33:50;;;;;;;22.87;11.25;;;1.60;99.90;;;;;;1979673;71;21054;-79
2021/11/10 07:36:16;;;;;;;18.55;12.03;;;1.70;99.90;;;;;;1967859;70;21080;-78
2021/11/10 07:38:44;;;;;;;51.75;12.05;;;1.70;99.90;;;;;;1973432;72;21083;-79
2021/11/10 07:41:15;;;;;;;17.45;12.03;;;1.70;99.90;;;;;;1987253;71;21050;-78
2021/11/10 07:43:38;;;;;;;21.50;11.70;;;1.70;99.90;;;;;;1967259;70;21216;-78
2021/11/10 07:46:13;;;;;;;16.25;11.08;;;1.70;99.90;;;;;;1968322;72;21036;-78
2021/11/10 07:48:33;;;;;;;16.10;10.32;;;1.80;99.90;;;;;;1961450;72;21496;-78
2021/11/10 07:50:59;;;;;;;21.87;12.00;;;1.90;99.90;;;;;;1930459;72;21068;-78
2021/11/10 07:53:25;;;;;;;30.77;11.68;;;1.90;99.90;;;;;;1979225;70;21058;-78
2021/11/10 07:55:51;;;;;;;16.67;11.30;;;1.90;99.90;;;;;;1966639;71;21553;-78
2021/11/10 07:58:17;;;;;;;27.48;13.38;;;2.00;99.90;;;;;;1972882;72;21570;-78
2021/11/10 08:00:43;;;;;;;21.23;11.25;;;2.10;99.90;;;;;;1974780;72;21106;-77
2021/11/10 08:03:09;;;;;;;34.40;12.75;;;2.20;99.90;;;;;;1977953;71;21075;-79
2021/11/10 08:05:36;;;;;;;18.25;11.70;;;2.40;99.90;;;;;;1986537;72;21133;-79
2021/11/10 08:08:02;;;;;;;28.95;13.00;;;2.50;99.90;;;;;;1990923;71;21070;-76
2021/11/10 08:10:28;;;;;;;28.35;11.90;;;2.30;99.90;;;;;;1993469;72;21032;-79
2021/11/10 08:12:54;;;;;;;20.55;10.93;;;2.40;99.90;;;;;;1965585;71;21086;-77
2021/11/10 08:15:20;;;;;;;17.92;11.75;;;2.40;99.90;;;;;;1972143;71;21068;-79
2021/11/10 08:17:46;;;;;;;14.58;10.78;;;2.30;99.90;;;;;;1962827;71;21149;-78
2021/11/10 08:20:12;;;;;;;20.62;10.13;;;2.50;99.90;;;;;;1962089;72;21064;-79
2021/11/10 08:22:38;;;;;;;17.60;10.82;;;2.60;99.90;;;;;;1964965;72;21041;-79
2021/11/10 08:25:05;;;;;;;18.30;9.73;;;2.60;99.90;;;;;;1968141;71;21060;-79
2021/11/10 08:27:31;;;;;;;17.12;10.70;;;2.70;99.90;;;;;;1968071;71;21060;-77
2021/11/10 08:29:57;;;;;;;26.82;11.25;;;2.70;99.90;;;;;;1974416;71;21071;-77
2021/11/10 08:32:23;;;;;;;20.55;10.70;;;2.80;99.90;;;;;;1976002;71;21188;-79
2021/11/10 08:34:50;;;;;;;23.32;9.70;;;3.00;99.90;;;;;;1979826;71;21123;-78
2021/11/10 08:37:16;;;;;;;18.48;10.48;;;3.00;99.90;;;;;;1991623;71;21059;-79
2021/11/10 08:39:42;;;;;;;23.83;9.30;;;3.10;99.90;;;;;;1976980;71;21071;-78
2021/11/10 08:42:08;;;;;;;18.70;9.55;;;3.10;99.90;;;;;;1987909;70;21076;-76
2021/11/10 08:44:36;;;;;;;18.55;11.05;;;3.30;99.90;;;;;;1973456;71;21716;-76
2021/11/10 08:47:04;;;;;;;20.82;10.40;;;3.20;99.90;;;;;;1967362;71;21076;-78
2021/11/10 08:49:30;;;;;;;12.05;9.33;;;3.20;99.90;;;;;;1967529;71;21050;-77
2021/11/10 08:51:57;;;;;;;13.70;9.95;;;3.30;99.90;;;;;;1972395;71;21066;-77
2021/11/10 08:54:25;;;;;;;25.68;10.43;;;3.30;99.90;;;;;;1982298;71;21075;-76
2021/11/10 08:56:51;;;;;;;24.47;10.35;;;3.20;99.90;;;;;;1983256;70;21616;-77
2021/11/10 08:59:17;;;;;;;20.27;10.08;;;3.30;99.90;;;;;;1962663;71;21076;-77
2021/11/10 09:01:43;;;;;;;18.80;10.13;;;3.50;99.90;;;;;;1962965;72;21099;-75
2021/11/10 09:04:09;;;;;;;19.55;10.40;;;3.50;99.90;;;;;;1985212;72;21058;-77
2021/11/10 09:06:36;;;;;;;18.10;10.85;;;3.60;99.90;;;;;;1983646;71;21051;-76
2021/11/10 09:09:02;;;;;;;20.62;11.75;;;3.60;99.90;;;;;;1975713;70;21194;-76
2021/11/10 09:11:28;;;;;;;20.05;10.45;;;3.50;99.90;;;;;;1982473;71;21051;-76
2021/11/10 09:13:54;;;;;;;19.90;10.53;;;3.60;99.90;;;;;;1967517;72;21115;-75
2021/11/10 09:16:20;;;;;;;14.25;10.50;;;3.60;99.90;;;;;;1968159;71;21103;-75
2021/11/10 09:18:46;;;;;;;21.02;11.03;;;3.60;99.90;;;;;;1986209;72;21058;-76
2021/11/10 09:21:12;;;;;;;19.02;10.58;;;3.60;99.90;;;;;;1979517;71;21024;-77
2021/11/10 09:23:39;;;;;;;18.32;11.30;;;3.70;99.90;;;;;;1963060;71;21149;-77
2021/11/10 09:26:05;;;;;;;20.17;10.00;;;3.80;99.90;;;;;;1968247;71;21134;-78
2021/11/10 09:28:32;;;;;;;14.60;10.38;;;4.00;99.90;;;;;;1967748;72;21068;-77
2021/11/10 09:30:58;;;;;;;21.60;11.08;;;4.20;99.90;;;;;;1967907;71;21202;-78
2021/11/10 09:33:25;;;;;;;26.77;11.40;;;4.20;99.90;;;;;;1987424;70;21071;-77
2021/11/10 09:35:51;;;;;;;19.35;11.12;;;4.10;99.90;;;;;;1978626;72;21056;-77
2021/11/10 09:38:18;;;;;;;32.17;14.93;;;4.00;99.90;;;;;;1973280;70;21036;-77
2021/11/10 09:40:45;;;;;;;17.60;10.97;;;4.20;99.90;;;;;;1994638;71;21145;-76
2021/11/10 09:43:13;;;;;;;19.95;11.20;;;4.30;99.90;;;;;;1994031;71;21139;-77
2021/11/10 09:45:40;;;;;;;15.65;11.15;;;4.30;99.90;;;;;;1978545;71;21452;-77
2021/11/10 09:48:06;;;;;;;20.48;12.07;;;4.40;99.90;;;;;;1987907;70;21145;-78
2021/11/10 09:50:33;;;;;;;20.32;10.13;;;4.20;99.90;;;;;;1975917;71;21066;-78
2021/11/10 09:53:00;;;;;;;23.50;12.00;;;4.20;99.90;;;;;;1962885;72;21137;-77
2021/11/10 09:55:26;;;;;;;18.75;11.70;;;4.30;99.90;;;;;;1972144;71;21134;-77
2021/11/10 09:57:52;;;;;;;17.80;10.18;;;4.30;99.90;;;;;;1975326;71;21126;-78
2021/11/10 10:00:18;;;;;;;14.50;11.25;;;4.30;99.90;;;;;;1970205;71;21146;-77
2021/11/10 10:02:48;;;;;;;23.18;10.43;;;4.30;99.90;;;;;;1978314;71;21176;-78
2021/11/10 10:05:14;;;;;;;22.70;11.15;;;4.30;99.90;;;;;;1967075;71;21142;-76
2021/11/10 10:07:40;;;;;;;16.93;11.48;;;4.40;99.90;;;;;;1983641;70;21182;-77
2021/11/10 10:10:06;;;;;;;22.32;10.78;;;4.50;99.90;;;;;;1963055;71;21080;-78
2021/11/10 10:12:32;;;;;;;28.80;11.28;;;4.60;99.90;;;;;;1963589;72;21121;-78
2021/11/10 10:15:00;;;;;;;20.25;11.65;;;4.60;99.90;;;;;;1982689;72;21045;-77
2021/11/10 10:17:26;;;;;;;23.15;11.70;;;4.50;99.90;;;;;;1982614;72;21625;-75
2021/11/10 10:19:52;;;;;;;23.83;12.23;;;4.50;99.90;;;;;;1978025;71;21468;-77
2021/11/10 10:22:18;;;;;;;17.37;10.70;;;4.50;99.90;;;;;;1967655;71;21545;-77
2021/11/10 10:24:45;;;;;;;23.60;12.18;;;4.60;99.90;;;;;;1972720;71;21464;-78
2021/11/10 10:27:12;;;;;;;25.15;12.03;;;4.50;99.90;;;;;;1972722;71;21149;-78
2021/11/10 10:29:38;;;;;;;18.87;12.70;;;4.60;99.90;;;;;;1984837;72;21132;-77
2021/11/10 10:32:04;;;;;;;20.43;11.28;;;4.60;99.90;;;;;;1973845;70;21079;-77
2021/11/10 10:34:30;;;;;;;19.95;11.93;;;4.70;99.90;;;;;;1973015;70;21035;-77
2021/11/10 10:36:56;;;;;;;22.00;11.55;;;4.70;99.90;;;;;;1978339;71;21050;-77
2021/11/10 10:39:22;;;;;;;19.10;12.20;;;4.90;99.90;;;;;;1982055;71;21088;-77
2021/11/10 10:41:49;;;;;;;16.02;12.07;;;5.00;99.90;;;;;;1972211;72;21072;-78
2021/11/10 10:44:16;;;;;;;17.67;12.20;;;5.00;99.90;;;;;;1993636;71;21066;-77
2021/11/10 10:46:42;;;;;;;19.77;11.18;;;5.10;99.90;;;;;;1977930;71;21145;-77
2021/11/10 10:49:08;;;;;;;29.12;11.65;;;5.40;99.90;;;;;;1991459;71;21027;-78
2021/11/10 10:51:34;;;;;;;21.55;11.68;;;5.50;99.90;;;;;;1987880;71;21094;-77
2021/11/10 10:54:01;;;;;;;19.70;11.95;;;5.60;99.90;;;;;;1975592;71;21145;-77
2021/11/10 10:56:27;;;;;;;22.55;11.60;;;5.80;99.90;;;;;;1978332;71;21125;-77
2021/11/10 10:58:53;;;;;;;18.75;11.45;;;5.90;99.90;;;;;;1970045;71;21045;-77
2021/11/10 11:01:19;;;;;;;21.68;11.53;;;5.90;99.90;;;;;;1970923;71;21060;-78
2021/11/10 11:03:45;;;;;;;20.37;12.50;;;5.80;99.90;;;;;;1982857;72;21066;-77
2021/11/10 11:06:11;;;;;;;17.55;11.73;;;5.90;99.90;;;;;;1993792;70;21540;-78
2021/11/10 11:08:38;;;;;;;19.02;11.70;;;6.00;99.90;;;;;;1930475;71;21522;-78
2021/11/10 11:11:04;;;;;;;17.10;11.48;;;6.10;99.90;;;;;;1961403;71;21192;-78
2021/11/10 11:13:30;;;;;;;16.50;12.40;;;6.20;99.90;;;;;;1978116;71;21059;-77
2021/11/10 11:15:57;;;;;;;19.00;12.80;;;6.20;99.90;;;;;;1979552;72;21201;-76
2021/11/10 11:18:23;;;;;;;20.10;12.00;;;6.40;99.90;;;;;;1972673;71;21486;-77
2021/11/10 11:20:49;;;;;;;20.35;12.37;;;6.30;99.90;;;;;;1982709;71;21540;-77
2021/11/10 11:23:18;;;;;;;21.52;13.43;;;6.30;99.90;;;;;;1982960;71;21075;-76
2021/11/10 11:25:44;;;;;;;19.32;12.18;;;6.50;99.90;;;;;;1978247;70;21118;-77
2021/11/10 11:28:10;;;;;;;17.55;11.68;;;6.60;99.90;;;;;;1982639;71;21031;-77
2021/11/10 11:30:37;;;;;;;19.73;12.03;;;6.70;99.90;;;;;;1987881;70;21482;-77
2021/11/10 11:33:03;;;;;;;22.93;13.40;;;7.00;99.90;;;;;;1977344;71;21478;-77
2021/11/10 11:35:31;;;;;;;20.37;12.63;;;7.20;99.90;;;;;;1989540;70;21142;-77
2021/11/10 11:37:58;;;;;;;16.73;12.03;;;7.40;99.90;;;;;;1971134;71;21066;-77
2021/11/10 11:40:24;;;;;;;19.10;12.50;;;7.60;99.90;;;;;;1967696;71;21200;-77
2021/11/10 11:42:50;;;;;;;19.02;12.25;;;7.30;99.90;;;;;;1968131;72;21054;-77
2021/11/10 11:45:17;;;;;;;23.47;12.75;;;7.20;99.90;;;;;;1973491;71;21075;-77
2021/11/10 11:47:43;;;;;;;23.90;13.20;;;7.20;99.90;;;;;;1972693;71;21071;-77
2021/11/10 11:50:09;;;;;;;31.15;13.35;;;7.30;99.90;;;;;;1977639;70;21136;-77
2021/11/10 11:52:35;;;;;;;24.98;13.35;;;7.20;99.90;;;;;;1977737;71;21051;-77
2021/11/10 11:55:01;;;;;;;19.32;12.50;;;7.40;99.90;;;;;;1968589;70;21048;-78
2021/11/10 11:57:28;;;;;;;17.30;12.15;;;7.30;99.90;;;;;;1974994;70;21055;-78
2021/11/10 11:59:54;;;;;;;23.27;13.62;;;7.20;99.90;;;;;;1979841;71;21062;-78
2021/11/10 12:02:20;;;;;;;24.27;13.95;;;7.20;99.90;;;;;;1970661;70;21043;-77
2021/11/10 12:04:46;;;;;;;21.15;14.18;;;7.50;99.90;;;;;;1968760;71;21041;-77
2021/11/10 12:07:12;;;;;;;27.45;13.50;;;7.50;99.90;;;;;;1962914;71;21064;-77
2021/11/10 12:09:38;;;;;;;20.48;13.03;;;7.60;99.90;;;;;;1972507;71;21113;-76
2021/11/10 12:12:04;;;;;;;22.95;14.55;;;7.70;99.90;;;;;;1993420;71;21174;-76
2021/11/10 12:14:30;;;;;;;22.37;13.88;;;7.70;99.90;;;;;;1972611;71;21041;-77
2021/11/10 12:16:57;;;;;;;18.52;12.93;;;7.80;99.90;;;;;;1977252;71;21560;-76
2021/11/10 12:19:23;;;;;;;21.57;13.53;;;8.10;99.90;;;;;;1993649;70;21837;-76
2021/11/10 12:21:49;;;;;;;21.75;13.35;;;8.20;99.90;;;;;;1978143;71;21568;-76
2021/11/10 12:24:15;;;;;;;19.35;12.98;;;8.10;99.90;;;;;;1977916;70;21646;-76
2021/11/10 12:26:41;;;;;;;20.77;13.85;;;8.50;99.90;;;;;;1977920;71;21059;-76
2021/11/10 12:29:07;;;;;;;23.83;14.25;;;9.10;99.90;;;;;;1978842;71;21066;-76
2021/11/10 12:31:33;;;;;;;23.00;13.32;;;9.10;99.90;;;;;;1968034;71;21075;-77
2021/11/10 12:34:00;;;;;;;22.10;13.80;;;9.50;99.90;;;;;;1970711;70;21119;-76